x

Ilm3 - 27 Miles Se Of Wrightsville Beach, Nc (41037) Weather Station

4:08am - Tue 24th Oct 2017 All times are EDT. -4 hours from GMT.

  • Wind
    20mph, 29mph gusts
  • Sea Temp 76°f
  • Air Temp 71°f
  • Sea Pressure 1011.7mb
  • Ilm3 - 27 Miles Se Of Wrightsville Beach, Nc
  • Ilm3 - 27 Miles Se Of Wrightsville Beach, Nc

More Historic Weather Station data

Upgrade to MSW Pro to gain access to the past 30 days of data for over 8000 Wavebouys and Weather Stations around the globe.

Join

Comparision Forecast

View Surf forecast
   
Tue 10/24 4:08am 20 29 mph 1011.7mb 76f 71f
2:08am 25 34 mph 1010.7mb 76f 75f
1:08am 31 45 mph 1010.9mb 76f 76f
12:08am 22 31 mph 1012.1mb 76f 78f
Mon 10/23 11:08pm 22 31 mph 1012.7mb 76f 78f
10:08pm 25 34 mph 1013.5mb 76f 78f
9:08pm 25 34 mph 1013.3mb 76f 78f
8:08pm 25 31 mph 1013.4mb 76f 77f
7:08pm 22 31 mph 1013.4mb 76f 77f
6:08pm 20 27 mph 1014.9mb 76f 77f
5:08pm 16 25 mph 1015.2mb 76f 76f
4:08pm 20 27 mph 1015.6mb 76f 75f
3:08pm 13 18 mph 1016.7mb 76f 77f
2:08pm 13 20 mph 1017.6mb 76f 77f
1:08pm 16 22 mph 1018.7mb 76f 77f
12:08pm 18 25 mph 1019.5mb 75f 77f
10:08am 20 27 mph 1021mb 76f 77f
9:08am 18 25 mph 1021.2mb 76f 77f
8:08am 18 25 mph 1021.5mb 76f 77f
7:08am 16 25 mph 1021.5mb 76f 76f
6:08am 16 25 mph 1021.8mb 76f 76f
5:08am 16 25 mph 1022mb 76f 76f
4:08am 16 22 mph 1022.1mb 76f 76f
3:08am 16 22 mph 1022.4mb 76f 76f
2:08am 18 22 mph 1022.9mb 76f 76f
1:08am 16 22 mph 1023.7mb 76f 76f
12:08am 13 20 mph 1024.3mb 76f 76f
Sun 10/22 11:08pm 13 20 mph 1024.7mb 76f 76f
10:08pm 13 20 mph 1024.7mb 76f 77f
9:08pm 13 20 mph 1024.6mb 76f 77f
8:08pm 13 18 mph 1024.8mb 76f 76f
7:08pm 13 18 mph 1024.5mb 76f 76f
6:08pm 9 11 mph 1024.6mb 76f 77f
5:08pm 11 16 mph 1024.5mb 76f 77f
4:08pm 9 13 mph 1024.8mb 76f 77f
3:08pm 9 13 mph 1025mb 76f 77f
2:08pm 9 13 mph 1025.8mb 76f 77f
1:08pm 9 11 mph 1026.7mb 76f 77f
12:08pm 7 13 mph 1027mb 76f 77f
11:08am 9 16 mph 1027.2mb 76f 76f
10:08am 7 11 mph 1027.4mb 75f 77f
9:08am 7 11 mph 1027.2mb 75f 75f
8:08am 13 20 mph 1026.4mb 75f 74f
7:08am 16 22 mph 1025.6mb 76f 74f
6:08am 16 22 mph 1025.5mb 76f 74f
5:08am 13 22 mph 1025.4mb 76f 74f
4:08am 13 20 mph 1025.3mb 76f 74f
3:08am 11 18 mph 1025.7mb 76f 74f
2:08am 13 18 mph 1026mb 76f 74f
1:08am 13 20 mph 1025.9mb 76f 74f
12:08am 13 20 mph 1026.3mb 76f 74f
Sat 10/21 11:08pm 13 20 mph 1026.8mb 76f 74f
10:08pm 13 18 mph 1026.7mb 76f 74f
9:08pm 13 18 mph 1026.6mb 76f 74f
8:08pm 13 18 mph 1026.6mb 76f 74f
7:08pm 13 18 mph 1026.3mb 76f 74f
6:08pm 11 16 mph 1026.1mb 76f 74f
5:08pm 11 18 mph 1026mb 76f 74f
4:08pm 11 16 mph 1025.8mb 76f 74f
3:08pm 11 18 mph 1025.9mb 76f 74f
2:08pm 9 13 mph 1026mb 76f 74f
1:08pm 9 13 mph 1026.4mb 76f 74f
12:08pm 9 13 mph 1026.6mb 76f 74f
11:08am 9 13 mph 1026.5mb 76f 74f
10:08am 11 13 mph 1026.3mb 75f 74f
9:08am  -  2 mph 1026.1mb 75f 77f
8:08am 4 9 mph 1025.2mb 75f 75f
7:08am 4 7 mph 1024.5mb 75f 74f
6:08am 7 11 mph 1024.4mb 75f 74f
5:08am 4 9 mph 1023.9mb 75f 73f
4:08am 4 7 mph 1023.7mb 75f 73f
3:08am 2 7 mph 1024mb 75f 73f
2:08am 2 4 mph 1024.2mb 76f 73f
1:08am 2 7 mph 1024.2mb 76f 73f
12:08am 4 7 mph 1024.1mb 76f 73f
Fri 10/20 11:08pm 4 9 mph 1023.8mb 76f 73f
10:08pm 4 7 mph 1023.3mb 76f 73f
9:08pm 4 9 mph 1022.9mb 76f 73f
8:08pm 4 9 mph 1022.9mb 76f 73f
7:08pm 4 9 mph 1022.4mb 76f 73f
6:08pm 4 9 mph 1022mb 76f 73f
5:08pm 2 4 mph 1022.1mb 76f 73f
4:08pm 2 7 mph 1022.4mb 76f 74f
3:08pm 4 7 mph 1022.6mb 76f 73f
2:08pm 4 9 mph 1023mb 76f 73f
1:08pm 7 9 mph 1023.8mb 76f 72f
12:08pm 9 11 mph 1024.4mb 76f 72f
10:08am 11 16 mph 1024.5mb 75f 72f